Time;durP1;ratioP1;P1;durP2;ratioP2;P2;SDS_P1;SDS_P2;PMS_P1;PMS_P2;Temp;Humidity;BMP_temperature;BMP_pressure;BME280_temperature;BME280_humidity;BME280_pressure;Samples;Min_cycle;Max_cycle;Signal;HPM_P1;HPM_P2
2023/01/17 00:01:32;;;;;;;;;;;;;;;7.87;68.84;97292.88;4468715;32;35221;-65
2023/01/17 00:12:19;;;;;;;;;;;;;;;8.88;65.27;97264.63;4470227;32;34084;-65
2023/01/17 00:14:47;;;;;;;;;;;;;;;8.85;65.33;97271.94;4477645;32;34072;-67
2023/01/17 00:17:14;;;;;;;;;;;;;;;8.53;66.79;97271.87;4472635;32;34384;-66
2023/01/17 01:35:41;;;;;;;;;;;;;;;6.58;74.69;97296.97;4480964;32;34851;-67
2023/01/17 01:38:09;;;;;;;;;;;;;;;6.84;73.61;97304.16;4472207;31;33475;-66
2023/01/17 01:40:40;;;;;;;;;;;;;;;7.19;73.01;97303.34;4475310;32;32643;-68
2023/01/17 01:43:08;;;;;;;;;;;;;;;6.95;74.20;97298.66;4470125;32;34214;-70
2023/01/17 01:45:35;;;;;;;;;;;;;;;6.34;75.50;97291.34;4453671;32;34399;-67
2023/01/17 01:48:02;;;;;;;;;;;;;;;6.84;74.72;97297.06;4469572;32;34342;-68
2023/01/17 01:50:30;;;;;;;;;;;;;;;7.14;73.51;97284.34;4480393;32;33901;-68
2023/01/17 01:52:58;;;;;;;;;;;;;;;7.32;73.15;97263.03;4471949;32;33522;-66
2023/01/17 01:55:29;;;;;;;;;;;;;;;8.43;68.78;97253.34;4465275;32;35249;-69
2023/01/17 01:57:57;;;;;;;;;;;;;;;9.00;66.58;97247.31;4475040;32;33516;-67
2023/01/17 02:00:26;;;;;;;;;;;;;;;9.23;65.61;97240.28;4465374;32;33987;-67
2023/01/17 02:02:53;;;;;;;;;;;;;;;9.03;66.11;97234.47;4471792;32;34293;-66
2023/01/17 02:05:21;;;;;;;;;;;;;;;8.92;65.97;97240.13;4476846;31;35214;-67
2023/01/17 02:07:49;;;;;;;;;;;;;;;8.77;66.49;97239.94;4456946;31;33861;-68
2023/01/17 02:10:17;;;;;;;;;;;;;;;9.02;66.07;97243.47;4478106;31;33771;-66
2023/01/17 02:12:44;;;;;;;;;;;;;;;9.14;65.72;97241.28;4469395;32;34044;-69
2023/01/17 02:15:11;;;;;;;;;;;;;;;9.32;64.66;97239.31;4464420;32;32766;-70
2023/01/17 02:17:45;;;;;;;;;;;;;;;8.84;66.02;97240.94;4470476;32;32264;-66
2023/01/17 02:20:31;;;;;;;;;;;;;;;8.79;66.80;97245.94;4472223;32;35301;-66
2023/01/17 02:23:21;;;;;;;;;;;;;;;9.18;64.71;97249.81;4473022;31;34653;-68
2023/01/17 02:25:52;;;;;;;;;;;;;;;8.69;67.23;97253.25;4452689;32;34041;-68
2023/01/17 02:28:25;;;;;;;;;;;;;;;8.61;67.09;97248.75;4468363;32;33498;-65
2023/01/17 02:31:16;;;;;;;;;;;;;;;7.56;70.80;97239.25;4477560;32;34872;-66
2023/01/17 02:34:00;;;;;;;;;;;;;;;7.90;70.96;97238.47;4462128;32;35886;-66
2023/01/17 02:36:46;;;;;;;;;;;;;;;7.98;70.40;97237.66;4464827;32;34230;-66
2023/01/17 02:39:21;;;;;;;;;;;;;;;6.92;73.94;97241.28;4475638;32;33849;-63
2023/01/17 02:41:50;;;;;;;;;;;;;;;6.98;74.60;97227.37;4461597;32;33824;-64
2023/01/17 02:44:18;;;;;;;;;;;;;;;6.25;77.38;97232.78;4451756;32;34236;-68
2023/01/17 02:46:49;;;;;;;;;;;;;;;6.02;79.73;97221.75;4468050;32;33775;-66
2023/01/17 02:49:17;;;;;;;;;;;;;;;6.41;78.16;97216.19;4471323;31;34363;-66
2023/01/17 02:51:47;;;;;;;;;;;;;;;6.73;76.27;97204.22;4468177;32;35158;-65
2023/01/17 02:54:20;;;;;;;;;;;;;;;7.22;74.49;97194.81;4469577;32;34286;-69
2023/01/17 02:56:47;;;;;;;;;;;;;;;8.45;69.75;97190.06;4478469;32;34077;-66
2023/01/17 02:59:33;;;;;;;;;;;;;;;8.12;70.22;97181.97;4473012;31;34397;-67
2023/01/17 03:02:07;;;;;;;;;;;;;;;8.63;68.54;97174.78;4468392;32;33884;-65
2023/01/17 03:04:41;;;;;;;;;;;;;;;8.77;67.03;97180.44;4468846;31;34037;-66
2023/01/17 03:07:10;;;;;;;;;;;;;;;8.25;68.85;97165.50;4468794;32;34185;-68
2023/01/17 03:09:39;;;;;;;;;;;;;;;9.51;64.91;97166.03;4472299;32;33617;-67
2023/01/17 03:12:07;;;;;;;;;;;;;;;9.77;63.89;97164.94;4456509;32;34085;-66
2023/01/17 03:14:35;;;;;;;;;;;;;;;9.93;62.98;97158.72;4466538;32;35792;-65
2023/01/17 03:17:02;;;;;;;;;;;;;;;9.41;64.16;97154.69;4472013;31;33792;-68
2023/01/17 03:19:30;;;;;;;;;;;;;;;9.45;64.68;97157.87;4457396;32;33238;-67
2023/01/17 03:21:57;;;;;;;;;;;;;;;8.53;66.76;97151.91;4473369;31;34020;-65
2023/01/17 03:24:24;;;;;;;;;;;;;;;9.21;65.68;97153.38;4471725;32;33929;-66
2023/01/17 03:26:52;;;;;;;;;;;;;;;9.54;64.08;97149.66;4467008;32;34180;-65
2023/01/17 03:29:19;;;;;;;;;;;;;;;8.88;66.11;97145.41;4466455;32;33596;-68
2023/01/17 03:31:46;;;;;;;;;;;;;;;9.03;66.50;97142.91;4464037;32;35003;-65
2023/01/17 03:34:14;;;;;;;;;;;;;;;9.49;64.75;97135.16;4470239;32;33381;-65
2023/01/17 03:36:41;;;;;;;;;;;;;;;9.71;63.93;97130.91;4467583;31;34044;-65
2023/01/17 03:39:08;;;;;;;;;;;;;;;10.01;62.43;97124.75;4471165;31;32072;-68
2023/01/17 03:41:36;;;;;;;;;;;;;;;10.15;61.93;97122.34;4465454;32;33964;-66
2023/01/17 03:44:03;;;;;;;;;;;;;;;9.31;63.13;97127.37;4466592;32;34783;-65
2023/01/17 03:46:30;;;;;;;;;;;;;;;8.65;67.49;97123.94;4467541;32;34095;-66
2023/01/17 03:48:57;;;;;;;;;;;;;;;7.84;70.46;97132.59;4471413;31;32731;-68
2023/01/17 03:51:25;;;;;;;;;;;;;;;8.80;67.22;97124.94;4477186;32;33724;-65
2023/01/17 03:53:53;;;;;;;;;;;;;;;9.75;63.91;97121.53;4469715;31;34035;-68
2023/01/17 03:56:20;;;;;;;;;;;;;;;10.21;62.14;97110.97;4470413;32;33984;-65
2023/01/17 03:58:47;;;;;;;;;;;;;;;10.27;61.64;97118.28;4471871;32;33978;-65
2023/01/17 04:01:15;;;;;;;;;;;;;;;10.23;61.58;97114.28;4468849;32;34978;-68
2023/01/17 04:03:42;;;;;;;;;;;;;;;9.14;65.40;97112.37;4467793;32;34167;-65
2023/01/17 04:06:10;;;;;;;;;;;;;;;9.24;65.38;97110.34;4467308;32;34699;-65
2023/01/17 04:08:37;;;;;;;;;;;;;;;9.62;63.94;97118.59;4474562;32;33610;-65
2023/01/17 04:11:04;;;;;;;;;;;;;;;10.09;62.53;97115.03;4472267;31;33939;-67
2023/01/17 04:13:32;;;;;;;;;;;;;;;8.20;68.53;97105.69;4478352;32;34282;-66
2023/01/17 04:15:59;;;;;;;;;;;;;;;7.75;70.21;97110.41;4465329;32;35167;-68
2023/01/17 04:18:27;;;;;;;;;;;;;;;8.62;67.68;97110.94;4465700;32;32514;-66
2023/01/17 04:20:54;;;;;;;;;;;;;;;8.33;68.96;97114.88;4467990;32;33870;-70
2023/01/17 04:23:21;;;;;;;;;;;;;;;8.65;67.73;97115.94;4471108;32;34272;-70
2023/01/17 04:25:48;;;;;;;;;;;;;;;9.39;64.65;97126.50;4479459;32;34530;-70
2023/01/17 04:28:15;;;;;;;;;;;;;;;8.86;66.52;97121.59;4481007;32;34176;-69
2023/01/17 04:30:43;;;;;;;;;;;;;;;8.49;67.83;97124.75;4474663;32;35294;-71
2023/01/17 04:33:10;;;;;;;;;;;;;;;9.27;64.76;97126.03;4471806;31;34368;-70
2023/01/17 04:35:37;;;;;;;;;;;;;;;8.70;67.61;97126.06;4474966;32;34120;-71
2023/01/17 04:38:04;;;;;;;;;;;;;;;9.41;64.91;97121.84;4470285;32;33150;-70
2023/01/17 04:40:32;;;;;;;;;;;;;;;8.75;66.71;97126.44;4471494;32;35255;-70
2023/01/17 04:42:59;;;;;;;;;;;;;;;9.52;64.51;97126.78;4463704;32;34170;-68
2023/01/17 04:45:26;;;;;;;;;;;;;;;9.74;63.61;97122.56;4472560;32;34595;-68
2023/01/17 04:47:54;;;;;;;;;;;;;;;9.51;64.45;97114.47;4469972;32;33183;-68
2023/01/17 04:50:21;;;;;;;;;;;;;;;8.89;66.15;97120.41;4475467;32;34976;-69
2023/01/17 04:52:48;;;;;;;;;;;;;;;8.93;66.44;97124.44;4475747;32;33146;-68
2023/01/17 04:55:16;;;;;;;;;;;;;;;9.16;65.52;97131.72;4465324;32;34144;-69
2023/01/17 04:57:43;;;;;;;;;;;;;;;9.24;65.54;97124.53;4473153;32;33352;-71
2023/01/17 05:00:11;;;;;;;;;;;;;;;9.00;65.98;97128.06;4474697;32;34115;-68
2023/01/17 05:02:38;;;;;;;;;;;;;;;8.67;67.61;97129.94;4479322;32;33020;-68
2023/01/17 05:05:06;;;;;;;;;;;;;;;8.19;68.96;97120.03;4463605;32;34571;-68
2023/01/17 05:07:33;;;;;;;;;;;;;;;8.45;68.89;97120.75;4467248;32;34247;-69
2023/01/17 05:10:03;;;;;;;;;;;;;;;7.75;70.96;97122.91;4479320;32;33993;-68
2023/01/17 05:12:30;;;;;;;;;;;;;;;7.43;72.40;97125.25;4479750;32;35040;-70
2023/01/17 05:14:57;;;;;;;;;;;;;;;8.48;69.03;97116.94;4476400;32;33836;-70
2023/01/17 05:17:25;;;;;;;;;;;;;;;7.61;71.88;97127.00;4479632;32;33428;-69
2023/01/17 05:19:52;;;;;;;;;;;;;;;7.96;70.87;97131.28;4475978;32;33700;-69
2023/01/17 05:22:19;;;;;;;;;;;;;;;7.02;74.13;97134.81;4478613;31;32958;-69
2023/01/17 05:24:47;;;;;;;;;;;;;;;6.94;75.01;97132.94;4479984;32;34082;-67
2023/01/17 05:27:14;;;;;;;;;;;;;;;7.30;73.77;97135.50;4477526;31;33183;-69
2023/01/17 05:29:41;;;;;;;;;;;;;;;7.45;73.14;97138.41;4476177;32;35214;-66
2023/01/17 05:32:09;;;;;;;;;;;;;;;7.55;72.71;97139.12;4472484;31;34099;-68
2023/01/17 05:34:36;;;;;;;;;;;;;;;7.45;73.02;97130.44;4468251;31;32513;-67
2023/01/17 05:37:03;;;;;;;;;;;;;;;7.59;72.39;97145.78;4470455;32;33752;-69
2023/01/17 05:39:31;;;;;;;;;;;;;;;7.52;72.57;97144.75;4470518;32;35034;-67
2023/01/17 05:41:58;;;;;;;;;;;;;;;7.32;73.03;97154.81;4470473;32;34547;-67
2023/01/17 05:44:26;;;;;;;;;;;;;;;8.16;70.24;97151.31;4470070;32;32916;-71
2023/01/17 05:46:54;;;;;;;;;;;;;;;7.25;72.27;97164.38;4470717;32;33508;-72
2023/01/17 05:49:22;;;;;;;;;;;;;;;6.81;75.19;97171.56;4470061;32;32590;-71
2023/01/17 05:51:49;;;;;;;;;;;;;;;7.30;73.80;97175.41;4470582;32;34178;-67
2023/01/17 05:54:16;;;;;;;;;;;;;;;7.42;73.26;97181.31;4470363;32;35483;-65
2023/01/17 05:56:44;;;;;;;;;;;;;;;7.58;72.95;97177.91;4470777;32;33985;-65
2023/01/17 05:59:11;;;;;;;;;;;;;;;7.03;74.94;97180.84;4470119;32;34235;-66
2023/01/17 06:01:40;;;;;;;;;;;;;;;6.85;75.70;97187.03;4469942;32;32969;-66
2023/01/17 06:04:08;;;;;;;;;;;;;;;7.09;74.67;97202.34;4470063;32;34336;-65
2023/01/17 06:06:35;;;;;;;;;;;;;;;6.86;75.04;97201.16;4469721;32;33153;-68
2023/01/17 06:09:02;;;;;;;;;;;;;;;6.92;75.13;97200.56;4470439;32;35087;-64
2023/01/17 06:11:30;;;;;;;;;;;;;;;7.23;74.47;97204.47;4470236;32;34716;-67
2023/01/17 06:13:57;;;;;;;;;;;;;;;7.55;73.35;97204.84;4470199;32;32831;-65
2023/01/17 06:16:24;;;;;;;;;;;;;;;7.26;74.41;97215.78;4470110;32;34319;-65
2023/01/17 06:18:51;;;;;;;;;;;;;;;7.98;71.36;97203.03;4469965;32;33939;-65
2023/01/17 06:21:19;;;;;;;;;;;;;;;7.46;73.36;97212.75;4470263;32;34085;-64
2023/01/17 06:23:46;;;;;;;;;;;;;;;7.16;73.57;97211.41;4469763;32;35136;-66
2023/01/17 06:26:13;;;;;;;;;;;;;;;7.23;73.16;97207.12;4470380;32;34466;-65
2023/01/17 06:28:41;;;;;;;;;;;;;;;6.76;75.96;97212.72;4470016;32;32852;-64
2023/01/17 06:31:08;;;;;;;;;;;;;;;7.21;74.74;97216.25;4470498;32;35507;-65
2023/01/17 06:33:36;;;;;;;;;;;;;;;6.68;75.43;97220.63;4469877;32;34828;-66
2023/01/17 06:36:03;;;;;;;;;;;;;;;7.13;74.12;97229.50;4468505;32;33390;-67
2023/01/17 06:38:30;;;;;;;;;;;;;;;7.82;71.74;97235.75;4474301;32;34352;-66
2023/01/17 06:40:59;;;;;;;;;;;;;;;7.88;71.35;97238.62;4470202;32;34258;-66
2023/01/17 06:43:27;;;;;;;;;;;;;;;7.67;71.90;97243.47;4477014;32;35302;-68
2023/01/17 06:45:54;;;;;;;;;;;;;;;7.56;71.95;97254.41;4473562;31;31800;-66
2023/01/17 06:48:22;;;;;;;;;;;;;;;7.61;71.68;97246.81;4483460;32;34353;-67
2023/01/17 06:50:49;;;;;;;;;;;;;;;7.59;71.96;97254.94;4475280;32;35294;-65
2023/01/17 06:53:16;;;;;;;;;;;;;;;7.52;72.14;97259.22;4477593;31;34354;-69
2023/01/17 06:55:43;;;;;;;;;;;;;;;6.90;73.46;97261.88;4472037;32;34106;-67
2023/01/17 06:58:11;;;;;;;;;;;;;;;6.72;74.56;97277.00;4475061;32;34382;-68
2023/01/17 07:00:38;;;;;;;;;;;;;;;6.85;74.31;97277.44;4476972;32;34117;-69
2023/01/17 07:03:16;;;;;;;;;;;;;;;6.94;73.74;97286.34;4474943;32;34253;-69
2023/01/17 07:05:43;;;;;;;;;;;;;;;7.19;71.93;97284.72;4478650;32;34225;-66
2023/01/17 07:08:11;;;;;;;;;;;;;;;7.62;70.71;97283.06;4475412;32;34097;-68
2023/01/17 07:10:38;;;;;;;;;;;;;;;7.31;71.94;97295.97;4470760;32;34107;-67
2023/01/17 07:13:05;;;;;;;;;;;;;;;7.66;69.28;97287.91;4478230;32;33036;-67
2023/01/17 07:15:32;;;;;;;;;;;;;;;7.29;70.95;97298.78;4471078;32;32348;-68
2023/01/17 07:18:00;;;;;;;;;;;;;;;7.43;70.59;97302.72;4470108;32;35334;-67
2023/01/17 07:20:28;;;;;;;;;;;;;;;7.51;70.07;97304.59;4477603;32;34034;-67
2023/01/17 07:22:55;;;;;;;;;;;;;;;7.88;68.66;97307.84;4470459;32;34809;-67
2023/01/17 07:25:22;;;;;;;;;;;;;;;8.04;68.51;97317.78;4472938;32;33484;-68
2023/01/17 07:27:53;;;;;;;;;;;;;;;8.65;66.30;97320.41;4467788;32;33788;-67
2023/01/17 07:30:21;;;;;;;;;;;;;;;8.61;65.48;97330.56;4469575;32;35171;-65
2023/01/17 07:32:52;;;;;;;;;;;;;;;8.23;65.89;97323.88;4470865;32;33903;-67
2023/01/17 07:35:19;;;;;;;;;;;;;;;8.12;65.54;97317.84;4474905;32;33757;-65
2023/01/17 07:37:50;;;;;;;;;;;;;;;8.17;66.00;97333.34;4454860;32;34090;-66
2023/01/17 07:40:17;;;;;;;;;;;;;;;8.13;65.49;97339.97;4478059;32;33413;-66
2023/01/17 07:42:45;;;;;;;;;;;;;;;7.99;66.57;97356.53;4475241;32;34193;-67
2023/01/17 07:45:13;;;;;;;;;;;;;;;8.43;63.92;97361.81;4475409;32;32135;-67
2023/01/17 07:47:40;;;;;;;;;;;;;;;8.61;63.41;97376.72;4478216;32;33816;-64
2023/01/17 07:50:08;;;;;;;;;;;;;;;8.78;62.82;97382.13;4476641;32;34220;-65
2023/01/17 07:52:35;;;;;;;;;;;;;;;8.47;63.34;97379.97;4480429;32;34807;-66
2023/01/17 07:55:03;;;;;;;;;;;;;;;8.64;62.93;97383.59;4480456;32;33349;-66
2023/01/17 07:57:31;;;;;;;;;;;;;;;8.86;61.07;97388.34;4473925;32;34162;-67
2023/01/17 07:59:59;;;;;;;;;;;;;;;8.96;60.70;97392.72;4454545;32;34802;-66
2023/01/17 08:02:26;;;;;;;;;;;;;;;8.88;60.81;97393.50;4474006;32;35737;-66
2023/01/17 08:04:54;;;;;;;;;;;;;;;8.66;61.57;97402.91;4477529;32;33357;-66
2023/01/17 08:07:21;;;;;;;;;;;;;;;9.20;61.02;97398.09;4478170;32;32800;-66
2023/01/17 08:09:49;;;;;;;;;;;;;;;9.97;60.10;97396.00;4479147;32;34451;-65
2023/01/17 08:12:16;;;;;;;;;;;;;;;10.76;58.11;97398.03;4477895;32;32502;-65
2023/01/17 08:14:44;;;;;;;;;;;;;;;10.97;56.27;97406.31;4472272;32;33094;-66
2023/01/17 08:17:11;;;;;;;;;;;;;;;11.14;55.31;97407.91;4467225;32;33782;-66
2023/01/17 08:19:39;;;;;;;;;;;;;;;11.04;54.52;97415.28;4477812;32;34099;-65
2023/01/17 08:22:06;;;;;;;;;;;;;;;10.68;54.62;97412.28;4478204;32;34418;-65
2023/01/17 08:24:33;;;;;;;;;;;;;;;11.08;53.85;97418.47;4480723;32;33472;-65
2023/01/17 08:27:01;;;;;;;;;;;;;;;11.53;52.90;97414.22;4479779;32;34142;-66
2023/01/17 08:29:28;;;;;;;;;;;;;;;12.24;51.80;97414.84;4472479;32;33381;-66
2023/01/17 08:31:55;;;;;;;;;;;;;;;13.67;46.92;97418.00;4483924;32;34388;-65
2023/01/17 08:34:23;;;;;;;;;;;;;;;13.31;46.70;97433.31;4483106;32;33211;-66
2023/01/17 08:36:53;;;;;;;;;;;;;;;12.20;49.20;97430.47;4484876;32;34279;-65
2023/01/17 08:39:20;;;;;;;;;;;;;;;12.31;48.94;97437.25;4474760;32;34294;-65
2023/01/17 08:41:48;;;;;;;;;;;;;;;12.19;48.09;97436.00;4472758;32;34015;-65
2023/01/17 08:44:15;;;;;;;;;;;;;;;12.16;49.80;97436.38;4473820;32;34242;-67
2023/01/17 08:46:43;;;;;;;;;;;;;;;12.31;48.77;97440.75;4470404;31;32679;-67
2023/01/17 08:49:10;;;;;;;;;;;;;;;12.27;49.05;97433.28;4472575;31;35996;-65
2023/01/17 08:51:38;;;;;;;;;;;;;;;12.73;48.89;97438.50;4469515;32;33927;-67
2023/01/17 08:54:06;;;;;;;;;;;;;;;13.47;47.45;97441.97;4476542;32;32915;-65
2023/01/17 08:56:33;;;;;;;;;;;;;;;13.64;45.96;97434.53;4474251;32;34087;-68
2023/01/17 08:59:01;;;;;;;;;;;;;;;13.26;45.48;97432.03;4470419;32;34293;-65
2023/01/17 09:01:29;;;;;;;;;;;;;;;13.64;44.50;97426.47;4475930;32;34136;-65
2023/01/17 09:03:56;;;;;;;;;;;;;;;14.29;43.64;97421.06;4477991;31;33521;-68
2023/01/17 09:06:24;;;;;;;;;;;;;;;15.74;40.34;97428.31;4475844;32;34196;-65
2023/01/17 09:08:53;;;;;;;;;;;;;;;16.75;38.65;97430.84;4475616;32;34084;-67
2023/01/17 09:11:20;;;;;;;;;;;;;;;16.27;39.23;97447.25;4479535;32;34076;-65
2023/01/17 09:13:48;;;;;;;;;;;;;;;16.45;39.39;97444.78;4468834;32;34699;-65
2023/01/17 09:16:15;;;;;;;;;;;;;;;17.51;38.04;97440.19;4469368;32;34087;-66
2023/01/17 09:18:42;;;;;;;;;;;;;;;17.67;35.51;97442.41;4477267;32;33980;-66
2023/01/17 09:21:14;;;;;;;;;;;;;;;17.81;34.99;97441.31;4478763;32;34962;-66
2023/01/17 09:23:41;;;;;;;;;;;;;;;18.22;34.23;97447.31;4473143;32;34279;-65
2023/01/17 09:26:14;;;;;;;;;;;;;;;19.42;33.68;97439.72;4473160;32;33152;-66
2023/01/17 09:28:41;;;;;;;;;;;;;;;20.97;30.37;97443.50;4453692;32;32812;-66
2023/01/17 09:31:09;;;;;;;;;;;;;;;21.49;28.51;97446.28;4479214;32;35169;-68
2023/01/17 09:33:36;;;;;;;;;;;;;;;21.06;29.91;97452.09;4481297;32;33163;-67
2023/01/17 09:36:04;;;;;;;;;;;;;;;20.00;31.27;97469.06;4474602;32;34239;-66
2023/01/17 09:38:31;;;;;;;;;;;;;;;19.33;31.34;97465.50;4470918;32;33146;-68
2023/01/17 09:40:59;;;;;;;;;;;;;;;20.09;31.25;97474.97;4470853;32;35245;-69
2023/01/17 09:43:39;;;;;;;;;;;;;;;19.77;32.03;97477.09;4468317;32;33562;-67
2023/01/17 09:46:11;;;;;;;;;;;;;;;19.60;32.24;97478.75;4479508;32;34628;-66
2023/01/17 09:48:38;;;;;;;;;;;;;;;19.31;32.69;97479.28;4472594;32;34079;-65
2023/01/17 09:51:11;;;;;;;;;;;;;;;18.85;33.72;97482.47;4467145;32;34058;-66
2023/01/17 09:53:40;;;;;;;;;;;;;;;18.42;34.07;97490.47;4464169;32;34459;-66
2023/01/17 09:56:14;;;;;;;;;;;;;;;18.15;34.89;97496.91;4473914;32;34969;-67
2023/01/17 09:58:42;;;;;;;;;;;;;;;17.96;35.21;97499.75;4456846;32;34179;-66
2023/01/17 10:01:11;;;;;;;;;;;;;;;17.87;35.22;97505.38;4468893;32;34271;-67
2023/01/17 10:03:45;;;;;;;;;;;;;;;17.45;36.65;97512.19;4478011;32;33554;-66
2023/01/17 10:06:15;;;;;;;;;;;;;;;17.78;36.58;97508.56;4474307;32;34991;-66
2023/01/17 10:09:02;;;;;;;;;;;;;;;17.53;37.03;97511.13;4461391;32;36296;-67
2023/01/17 10:11:42;;;;;;;;;;;;;;;17.67;36.63;97510.03;4476681;32;34067;-69
2023/01/17 10:14:24;;;;;;;;;;;;;;;18.50;34.31;97511.91;4468714;32;33705;-67
2023/01/17 10:17:01;;;;;;;;;;;;;;;18.68;33.73;97513.84;4476222;32;34181;-67
2023/01/17 10:19:47;;;;;;;;;;;;;;;19.36;33.12;97521.16;4473410;32;34351;-68
2023/01/17 10:22:14;;;;;;;;;;;;;;;20.29;31.14;97520.03;4469978;32;34875;-67
2023/01/17 10:24:45;;;;;;;;;;;;;;;20.44;30.84;97510.41;4478189;32;32700;-68
2023/01/17 10:27:14;;;;;;;;;;;;;;;19.87;31.62;97507.25;4471876;32;33434;-67
2023/01/17 10:29:42;;;;;;;;;;;;;;;20.05;31.44;97506.38;4459449;32;33445;-67
2023/01/17 10:32:09;;;;;;;;;;;;;;;21.39;29.57;97506.75;4470231;32;34232;-67
2023/01/17 10:34:39;;;;;;;;;;;;;;;22.60;27.97;97496.88;4458476;32;33180;-70
2023/01/17 10:37:18;;;;;;;;;;;;;;;24.01;24.71;97488.28;4475759;32;35216;-68
2023/01/17 10:39:47;;;;;;;;;;;;;;;25.02;23.68;97481.34;4468547;32;34513;-67
2023/01/17 10:42:19;;;;;;;;;;;;;;;26.36;23.11;97468.03;4473705;32;34760;-67
2023/01/17 10:44:49;;;;;;;;;;;;;;;27.29;21.84;97471.63;4468101;32;33448;-68
2023/01/17 10:47:21;;;;;;;;;;;;;;;27.53;19.63;97458.91;4460903;31;34272;-68
2023/01/17 10:49:51;;;;;;;;;;;;;;;27.62;19.84;97457.22;4473606;32;34537;-67
2023/01/17 10:52:42;;;;;;;;;;;;;;;26.92;21.21;97462.56;4471657;32;33981;-66
2023/01/17 10:55:11;;;;;;;;;;;;;;;26.44;21.24;97472.94;4462944;32;34073;-66
2023/01/17 10:57:40;;;;;;;;;;;;;;;24.51;22.71;97467.25;4456420;32;33990;-68
2023/01/17 11:00:18;;;;;;;;;;;;;;;23.37;24.60;97461.56;4474956;32;34721;-66
2023/01/17 11:02:48;;;;;;;;;;;;;;;22.67;26.05;97456.66;4462123;32;34393;-66
2023/01/17 11:05:24;;;;;;;;;;;;;;;22.93;25.81;97445.09;4475683;32;35783;-68
2023/01/17 11:08:01;;;;;;;;;;;;;;;23.23;25.48;97441.97;4475794;32;34416;-66
2023/01/17 11:10:56;;;;;;;;;;;;;;;23.62;25.58;97425.53;4470706;31;35842;-66
2023/01/17 11:13:25;;;;;;;;;;;;;;;23.62;24.54;97430.19;4476911;31;33806;-68
2023/01/17 11:15:57;;;;;;;;;;;;;;;23.04;25.43;97428.88;4482196;32;33679;-66
2023/01/17 11:18:27;;;;;;;;;;;;;;;23.21;25.54;97429.66;4456000;32;32557;-68
2023/01/17 11:21:14;;;;;;;;;;;;;;;23.09;25.92;97420.78;4478206;32;35593;-66
2023/01/17 11:23:48;;;;;;;;;;;;;;;23.00;27.14;97413.00;4473284;32;34146;-66
2023/01/17 11:26:20;;;;;;;;;;;;;;;22.87;25.94;97412.50;4478968;32;32139;-67
2023/01/17 11:28:47;;;;;;;;;;;;;;;22.46;26.14;97411.88;4467484;32;34698;-68
2023/01/17 11:31:15;;;;;;;;;;;;;;;22.78;25.85;97404.75;4475012;32;34327;-67
2023/01/17 11:33:55;;;;;;;;;;;;;;;23.08;26.29;97400.84;4470717;31;32926;-66
2023/01/17 11:36:26;;;;;;;;;;;;;;;22.83;26.70;97397.75;4472056;32;33295;-67
2023/01/17 11:39:20;;;;;;;;;;;;;;;21.98;28.10;97396.84;4456495;32;34009;-67
2023/01/17 11:41:48;;;;;;;;;;;;;;;21.47;27.28;97393.16;4479776;32;34400;-65
2023/01/17 11:44:19;;;;;;;;;;;;;;;20.93;28.29;97382.50;4452914;32;34071;-66
2023/01/17 11:46:46;;;;;;;;;;;;;;;20.52;29.04;97394.34;4454739;32;33727;-67
2023/01/17 11:49:24;;;;;;;;;;;;;;;19.81;29.40;97399.59;4472811;32;32980;-65
2023/01/17 11:51:55;;;;;;;;;;;;;;;19.18;30.79;97400.78;4470000;32;35015;-66
2023/01/17 11:54:30;;;;;;;;;;;;;;;18.59;31.41;97408.47;4456351;32;34310;-66
2023/01/17 11:57:00;;;;;;;;;;;;;;;16.29;35.58;97416.31;4481711;32;33048;-66
2023/01/17 11:59:30;;;;;;;;;;;;;;;16.89;34.59;97421.69;4472842;32;34225;-66
2023/01/17 12:02:15;;;;;;;;;;;;;;;16.65;33.69;97430.44;4452414;32;34030;-67
2023/01/17 12:04:44;;;;;;;;;;;;;;;17.20;33.04;97429.06;4457850;32;32745;-67
2023/01/17 12:07:15;;;;;;;;;;;;;;;16.91;33.35;97432.28;4463946;32;33236;-67
2023/01/17 12:09:46;;;;;;;;;;;;;;;16.60;34.42;97432.94;4474151;32;34900;-67
2023/01/17 12:15:09;;;;;;;;;;;;;;;14.71;38.37;97430.09;4461013;32;34042;-67
2023/01/17 12:17:44;;;;;;;;;;;;;;;14.48;38.68;97428.47;4477056;32;32425;-67
2023/01/17 12:20:15;;;;;;;;;;;;;;;13.26;40.49;97434.72;4476525;32;33998;-66
2023/01/17 12:22:48;;;;;;;;;;;;;;;13.39;41.02;97436.72;4460226;32;34081;-65
2023/01/17 12:25:31;;;;;;;;;;;;;;;13.26;41.80;97431.19;4473288;32;34268;-66
2023/01/17 12:27:58;;;;;;;;;;;;;;;13.59;41.02;97420.81;4471914;32;34054;-64
2023/01/17 12:30:26;;;;;;;;;;;;;;;12.70;43.32;97420.91;4472538;32;35139;-67
2023/01/17 12:32:59;;;;;;;;;;;;;;;12.14;43.78;97425.84;4478448;32;34270;-66
2023/01/17 12:35:29;;;;;;;;;;;;;;;12.54;43.64;97427.28;4457140;32;34403;-65
2023/01/17 12:38:00;;;;;;;;;;;;;;;11.66;45.11;97426.00;4453977;31;33804;-66
2023/01/17 12:40:34;;;;;;;;;;;;;;;11.62;45.97;97427.38;4456188;32;34408;-68
2023/01/17 12:43:21;;;;;;;;;;;;;;;12.01;44.81;97429.12;4456655;32;35129;-68
2023/01/17 12:45:49;;;;;;;;;;;;;;;11.75;45.04;97429.47;4470715;32;35496;-69
2023/01/17 12:48:17;;;;;;;;;;;;;;;11.91;43.76;97427.69;4474336;32;34202;-67
2023/01/17 12:50:44;;;;;;;;;;;;;;;12.74;43.07;97416.00;4480462;32;33923;-66
2023/01/17 12:53:21;;;;;;;;;;;;;;;12.86;42.83;97408.31;4473697;32;34009;-67
2023/01/17 12:55:54;;;;;;;;;;;;;;;12.99;41.68;97403.13;4475637;32;35728;-71
2023/01/17 12:58:23;;;;;;;;;;;;;;;13.09;40.83;97411.72;4473482;32;33166;-67
2023/01/17 13:01:02;;;;;;;;;;;;;;;12.27;43.83;97414.50;4453824;32;34261;-67
2023/01/17 13:03:47;;;;;;;;;;;;;;;12.09;44.28;97417.50;4469178;32;34544;-67
2023/01/17 13:06:18;;;;;;;;;;;;;;;12.03;45.82;97405.62;4456085;32;35455;-71
2023/01/17 13:08:48;;;;;;;;;;;;;;;11.68;45.43;97409.75;4461780;32;34061;-66
2023/01/17 13:11:17;;;;;;;;;;;;;;;12.71;43.67;97403.81;4464915;32;33952;-70
2023/01/17 13:13:46;;;;;;;;;;;;;;;11.52;46.03;97413.34;4462924;32;35543;-70
2023/01/17 13:16:14;;;;;;;;;;;;;;;12.19;43.59;97418.06;4473592;32;35033;-67
2023/01/17 13:18:45;;;;;;;;;;;;;;;11.50;44.72;97423.44;4450207;32;33162;-67
2023/01/17 13:21:29;;;;;;;;;;;;;;;12.31;42.89;97431.87;4484417;32;32774;-70
2023/01/17 13:23:57;;;;;;;;;;;;;;;12.23;43.91;97426.59;4466593;32;33510;-66
2023/01/17 13:26:29;;;;;;;;;;;;;;;12.15;44.80;97422.13;4469001;32;34283;-70
2023/01/17 13:28:59;;;;;;;;;;;;;;;11.65;46.12;97418.13;4471898;32;33884;-68
2023/01/17 13:31:27;;;;;;;;;;;;;;;10.94;48.04;97420.84;4478291;32;33131;-71
2023/01/17 13:34:00;;;;;;;;;;;;;;;11.76;46.77;97417.72;4483030;32;34131;-68
2023/01/17 13:36:40;;;;;;;;;;;;;;;11.58;47.66;97415.34;4471381;32;33958;-68
2023/01/17 13:39:10;;;;;;;;;;;;;;;12.13;46.70;97405.38;4484426;32;33669;-71
2023/01/17 13:41:40;;;;;;;;;;;;;;;10.85;50.29;97400.53;4472234;32;34141;-67
2023/01/17 13:44:20;;;;;;;;;;;;;;;11.34;49.39;97394.91;4474548;32;34155;-67
2023/01/17 13:46:54;;;;;;;;;;;;;;;12.21;47.18;97391.91;4468272;32;34191;-67
2023/01/17 13:49:25;;;;;;;;;;;;;;;10.55;51.68;97396.75;4472448;32;33639;-66
2023/01/17 13:52:06;;;;;;;;;;;;;;;10.84;50.92;97388.13;4472795;32;34609;-69
2023/01/17 13:54:33;;;;;;;;;;;;;;;11.36;49.94;97382.19;4470149;32;34485;-68
2023/01/17 13:57:20;;;;;;;;;;;;;;;10.02;53.36;97382.16;4469961;32;32706;-68
2023/01/17 13:59:47;;;;;;;;;;;;;;;10.74;51.80;97374.13;4474082;32;33241;-66
2023/01/17 14:02:33;;;;;;;;;;;;;;;10.73;51.93;97365.28;4479141;32;33126;-66
2023/01/17 14:05:03;;;;;;;;;;;;;;;10.51;52.48;97366.03;4468388;32;35597;-66
2023/01/17 14:07:31;;;;;;;;;;;;;;;11.21;50.72;97349.13;4476760;32;36491;-69
2023/01/17 14:09:58;;;;;;;;;;;;;;;10.72;52.67;97333.31;4458254;32;34048;-68
2023/01/17 14:12:30;;;;;;;;;;;;;;;11.33;51.04;97331.66;4458158;32;35658;-69
2023/01/17 14:14:59;;;;;;;;;;;;;;;10.68;52.53;97322.12;4475905;32;34007;-67
2023/01/17 14:17:33;;;;;;;;;;;;;;;10.09;54.82;97320.84;4471645;31;34221;-66
2023/01/17 14:20:03;;;;;;;;;;;;;;;10.12;55.25;97318.66;4456718;32;33302;-70
2023/01/17 14:22:34;;;;;;;;;;;;;;;9.03;58.46;97319.84;4473337;32;32809;-66
2023/01/17 14:25:08;;;;;;;;;;;;;;;9.00;59.53;97314.84;4473395;32;35247;-67
2023/01/17 14:27:39;;;;;;;;;;;;;;;10.21;55.62;97311.44;4477216;31;34445;-67
2023/01/17 14:30:15;;;;;;;;;;;;;;;9.38;57.09;97296.53;4463221;32;32792;-67
2023/01/17 14:33:09;;;;;;;;;;;;;;;10.26;55.08;97296.56;4465166;32;34427;-67
2023/01/17 14:35:37;;;;;;;;;;;;;;;10.28;54.50;97292.91;4466744;31;33914;-67